Chicago Midway International Airport
KMDW : now visible

Airfield :











YOU CAN JOIN US ON...

 
LOGIN :

Register | Disclaimer

   EN    FR    IT 

 









Legend :    VFR   Marginal VFR   IFR   Intensive IFR   Very Intensive IFR
Visi :
Ceiling :
>= 8 km
>= 3000ft
5 to 8 km
1000 to 3000 ft
1500m to 5 km
500 to 1000 ft
800 to 1500m
200 to 500 ft
< 800m
< 200 ft
Symbols :   Thunderstorms  Fog  Heavy snow  Heavy precipitations  Wind > 20 kt






- Airport Elevation : 620 ft
- IATA code : MDW


KMDW - Chicago Midway International

CURRENT METAR :
  • 301553Z 05010KT 10SM FEW035 FEW180 22/12 A3018 RMK AO2 SLP213 T02220122

EXPIRED METARs :
  • 301453Z 04013G18KT 10SM SCT035 SCT180 22/12 A3017 RMK AO2 SLP207 T02170122 53017
  • 301353Z 04015KT 10SM FEW035 FEW250 21/12 A3015 RMK AO2 SLP201 T02110122

TAF KMDW
Valid from the 30 at 15:00 until the 31 at 18:00 UTC


301501Z 3015/3118 03012KT P6SM FEW035 SCT200
FM302000 06010KT P6SM BKN200
FM310300 01003KT P6SM BKN120
FM311500 24007KT P6SM SCT250
KZAU FIR / North America



MET'MAP, your aeronautical weather chart ! - Copyright ORBIFLY December 2007 - Disclaimer

ORBIFLY MET'MAP TEAM :

Programming & Development : Alexandra Zaïnal
Concept & original design : Baudouin d'Aumeries
Assistance for programming : Marc-Olivier Méhu
Technical & hardware support : Manuel Goepfert

Contact : metmap@orbifly.com




SOURCES & CREDITS :

   NOAA       Earth
Advisory